Manga, Brazil
Current Conditions -  °F | °C
As of 8:00 PM on Monday 22 Dec 2014 (Local Time) from SBCR Reporting Station
Broken Clouds Broken Clouds  
Wind Chill: 73°   Ceiling: 900
Heat Index: 73°   Visibility: 6mi
Dew Point: 72°   Wind: 8mph
Humidity: 94%   Direction: 240°WSW
Pressure: 29.85"   Gusts: NA
Location:  19.23°S, 57.22°W
Report Text: SBCR 222300Z 24007KT 9999 BKN009 23/22 Q1011
Loading
Personal Weather Stations






























Interactive Weather Map New forecast layout! Learn more

10-Day Weather Forecast

Advertisements
Track Severe Weather on mobile